Time;durP1;ratioP1;P1;durP2;ratioP2;P2;SDS_P1;SDS_P2;PMS_P1;PMS_P2;Temp;Humidity;BMP_temperature;BMP_pressure;BME280_temperature;BME280_humidity;BME280_pressure;Samples;Min_cycle;Max_cycle;Signal;HPM_P1;HPM_P2
2023/01/31 00:02:02;;;;;;;30.60;4.60;;;5.00;99.90;;;;;;5066949;28;20044;-83
2023/01/31 00:04:49;;;;;;;42.10;6.45;;;4.90;99.90;;;;;;5043504;28;20060;-82
2023/01/31 00:07:36;;;;;;;24.25;3.83;;;4.90;99.90;;;;;;5033428;28;20056;-81
2023/01/31 00:10:22;;;;;;;22.40;5.05;;;4.80;99.90;;;;;;5019870;28;20056;-79
2023/01/31 00:13:08;;;;;;;29.77;5.20;;;4.70;99.90;;;;;;5036650;28;20049;-80
2023/01/31 00:15:57;;;;;;;33.10;5.45;;;4.70;99.90;;;;;;5051069;28;20144;-79
2023/01/31 00:18:44;;;;;;;53.65;6.72;;;4.60;99.90;;;;;;5053005;28;20052;-83
2023/01/31 00:21:31;;;;;;;43.15;7.22;;;4.50;99.90;;;;;;5055040;28;20053;-79
2023/01/31 00:24:17;;;;;;;41.65;6.55;;;4.40;99.90;;;;;;5050294;28;20052;-83
2023/01/31 00:27:03;;;;;;;32.95;4.55;;;4.40;99.90;;;;;;5050567;28;20049;-81
2023/01/31 00:29:49;;;;;;;25.27;4.25;;;4.30;99.90;;;;;;5032740;28;20041;-81
2023/01/31 00:32:35;;;;;;;21.48;4.25;;;4.30;99.90;;;;;;5057228;28;20060;-85
2023/01/31 00:35:21;;;;;;;34.33;5.25;;;4.20;99.90;;;;;;5051083;28;20056;-81
2023/01/31 00:38:07;;;;;;;27.90;4.72;;;4.20;99.90;;;;;;5050512;28;20143;-83
2023/01/31 00:40:54;;;;;;;30.15;5.13;;;4.10;99.90;;;;;;5048960;28;20499;-80
2023/01/31 00:43:40;;;;;;;29.33;4.53;;;4.10;99.90;;;;;;5035979;28;20087;-81
2023/01/31 00:46:26;;;;;;;32.08;4.40;;;4.00;99.90;;;;;;5050753;28;20524;-82
2023/01/31 00:49:12;;;;;;;40.55;7.00;;;4.10;99.90;;;;;;5050202;28;20053;-82
2023/01/31 00:51:58;;;;;;;29.30;5.18;;;4.10;99.90;;;;;;5034881;28;20482;-79
2023/01/31 00:54:44;;;;;;;22.73;4.93;;;4.10;99.90;;;;;;5037027;28;20148;-83
2023/01/31 00:57:30;;;;;;;27.83;3.58;;;4.10;99.90;;;;;;5036682;28;20056;-80
2023/01/31 01:00:17;;;;;;;31.42;4.60;;;4.10;99.90;;;;;;5049449;28;20053;-80
2023/01/31 01:03:03;;;;;;;28.63;3.95;;;4.10;99.90;;;;;;5049817;28;20056;-80
2023/01/31 01:05:49;;;;;;;27.42;4.43;;;4.10;99.90;;;;;;5050399;28;20060;-79
2023/01/31 01:08:37;;;;;;;38.90;5.60;;;4.00;99.90;;;;;;5049452;28;20067;-82
2023/01/31 01:11:28;;;;;;;38.53;7.68;;;4.00;99.90;;;;;;5055319;28;20057;-81
2023/01/31 01:14:15;;;;;;;35.35;7.28;;;4.00;99.90;;;;;;5049253;28;20060;-81
2023/01/31 01:17:01;;;;;;;26.65;5.45;;;4.00;99.90;;;;;;5050848;28;20505;-80
2023/01/31 01:19:47;;;;;;;31.30;5.10;;;4.00;99.90;;;;;;5050605;28;20109;-82
2023/01/31 01:22:35;;;;;;;34.05;5.10;;;4.00;99.90;;;;;;5052316;28;20048;-82
2023/01/31 01:25:21;;;;;;;34.53;4.95;;;4.10;99.90;;;;;;5049406;28;20485;-81
2023/01/31 01:28:07;;;;;;;33.42;6.32;;;4.20;99.90;;;;;;5050903;28;20056;-77
2023/01/31 01:30:53;;;;;;;29.48;4.60;;;4.20;99.90;;;;;;5037448;28;20059;-82
2023/01/31 01:33:39;;;;;;;31.38;4.70;;;4.30;99.90;;;;;;5033969;28;20049;-78
2023/01/31 01:36:26;;;;;;;28.02;5.18;;;4.30;99.90;;;;;;5052992;28;20063;-83
2023/01/31 01:39:12;;;;;;;33.80;5.22;;;4.40;99.90;;;;;;5052500;28;20068;-81
2023/01/31 01:41:58;;;;;;;26.85;3.92;;;4.50;99.90;;;;;;5049402;28;20053;-80
2023/01/31 01:44:49;;;;;;;29.00;6.15;;;4.50;99.90;;;;;;5050649;28;20048;-79
2023/01/31 01:47:44;;;;;;;30.73;4.45;;;4.50;99.90;;;;;;5038139;28;20065;-78
2023/01/31 01:50:35;;;;;;;22.60;3.80;;;4.50;99.90;;;;;;5030664;28;20099;-78
2023/01/31 01:53:25;;;;;;;22.55;4.65;;;4.50;99.90;;;;;;5050654;28;20049;-80
2023/01/31 01:56:23;;;;;;;34.38;5.38;;;4.50;99.90;;;;;;5050434;28;20080;-78
2023/01/31 01:59:19;;;;;;;24.60;3.88;;;4.50;99.90;;;;;;5050030;28;20041;-80
2023/01/31 02:02:05;;;;;;;;;;;4.50;99.90;;;;;;5049118;28;20068;-81
2023/01/31 02:04:51;;;;;;;26.67;3.97;;;4.50;99.90;;;;;;5051229;28;19951;-80
2023/01/31 02:07:37;;;;;;;24.10;4.90;;;4.50;99.90;;;;;;5058334;28;20053;-78
2023/01/31 02:10:42;;;;;;;32.85;4.72;;;4.50;99.90;;;;;;5056109;28;20084;-81
2023/01/31 02:13:30;;;;;;;29.52;5.30;;;4.60;99.90;;;;;;5053512;28;20060;-79
2023/01/31 02:16:16;;;;;;;24.80;4.00;;;4.50;99.90;;;;;;5054804;28;20132;-84
2023/01/31 02:19:07;;;;;;;23.63;3.75;;;4.50;99.90;;;;;;5055860;28;20471;-84
2023/01/31 02:22:11;;;;;;;26.92;3.88;;;4.50;99.90;;;;;;5055101;28;20056;-79
2023/01/31 02:25:00;;;;;;;31.92;4.68;;;4.60;99.90;;;;;;5053527;28;20060;-83
2023/01/31 02:28:09;;;;;;;16.63;3.90;;;4.60;99.90;;;;;;5040853;28;20521;-78
2023/01/31 02:31:04;;;;;;;25.40;4.18;;;4.60;99.90;;;;;;5003092;28;20168;-80
2023/01/31 02:34:27;;;;;;;24.33;3.15;;;4.60;99.90;;;;;;5051520;28;20115;-79
2023/01/31 02:37:22;;;;;;;22.35;2.97;;;4.50;99.90;;;;;;5053222;28;20055;-80
2023/01/31 02:40:18;;;;;;;22.05;3.47;;;4.50;99.90;;;;;;5051165;28;20063;-79
2023/01/31 02:43:17;;;;;;;23.70;4.18;;;4.40;99.90;;;;;;5051862;28;20088;-80
2023/01/31 02:46:13;;;;;;;19.33;4.32;;;4.40;99.90;;;;;;5038723;28;20041;-78
2023/01/31 02:49:14;;;;;;;25.02;3.63;;;4.40;99.90;;;;;;5056367;28;20099;-78
2023/01/31 02:52:23;;;;;;;24.65;4.18;;;4.30;99.90;;;;;;5051080;28;20520;-83
2023/01/31 02:58:32;;;;;;;16.15;2.97;;;4.30;99.90;;;;;;5034710;28;20053;-79
2023/01/31 03:01:24;;;;;;;23.55;3.22;;;4.40;99.90;;;;;;5052176;28;20061;-80
2023/01/31 03:04:12;;;;;;;18.38;3.78;;;4.40;99.90;;;;;;5052624;28;20081;-79
2023/01/31 03:07:12;;;;;;;30.08;4.22;;;4.40;99.90;;;;;;5054677;28;20045;-80
2023/01/31 03:10:09;;;;;;;24.42;4.05;;;4.40;99.90;;;;;;5052600;28;20045;-79
2023/01/31 03:13:30;;;;;;;27.60;3.58;;;4.50;99.90;;;;;;5034911;28;20048;-80
2023/01/31 03:19:37;;;;;;;23.85;3.50;;;4.50;99.90;;;;;;5051557;28;20076;-81
2023/01/31 03:22:28;;;;;;;19.85;3.15;;;4.50;99.90;;;;;;5052692;28;20044;-79
2023/01/31 03:25:20;;;;;;;27.70;4.15;;;4.50;99.90;;;;;;5055673;28;20060;-83
2023/01/31 03:28:14;;;;;;;12.70;3.05;;;4.60;99.90;;;;;;5038121;28;20110;-84
2023/01/31 03:31:24;;;;;;;29.67;3.72;;;4.60;99.90;;;;;;5053471;28;20057;-84
2023/01/31 03:34:12;;;;;;;19.55;3.55;;;4.70;99.90;;;;;;5052556;28;20048;-79
2023/01/31 03:37:15;;;;;;;18.17;3.42;;;4.70;99.90;;;;;;5050830;28;20060;-78
2023/01/31 03:40:08;;;;;;;22.17;3.67;;;4.80;99.90;;;;;;5053904;28;20512;-81
2023/01/31 03:43:11;;;;;;;19.88;4.03;;;4.80;99.90;;;;;;5053733;28;20044;-80
2023/01/31 03:46:05;;;;;;;29.92;3.70;;;4.70;99.90;;;;;;5051615;28;20493;-82
2023/01/31 03:48:55;;;;;;;28.27;4.63;;;4.80;99.90;;;;;;5050427;28;20091;-80
2023/01/31 03:51:50;;;;;;;23.52;4.68;;;4.70;99.90;;;;;;5051981;28;20055;-79
2023/01/31 03:54:45;;;;;;;25.20;6.13;;;4.70;99.90;;;;;;5051656;28;20866;-78
2023/01/31 03:57:35;;;;;;;37.45;6.45;;;4.70;99.90;;;;;;5050140;28;20298;-81
2023/01/31 04:00:23;;;;;;;27.35;4.30;;;4.70;99.90;;;;;;5056541;28;20727;-81
2023/01/31 04:03:19;;;;;;;28.08;5.22;;;4.80;99.90;;;;;;5051765;28;20052;-83
2023/01/31 04:06:05;;;;;;;27.88;5.43;;;4.80;99.90;;;;;;5049410;28;20509;-82
2023/01/31 04:08:51;;;;;;;32.78;7.40;;;4.80;99.90;;;;;;5053766;28;20061;-86
2023/01/31 04:11:39;;;;;;;27.40;4.78;;;4.90;99.90;;;;;;5056117;28;20119;-82
2023/01/31 04:14:26;;;;;;;56.63;8.65;;;4.90;99.90;;;;;;5051952;28;20045;-80
2023/01/31 04:17:12;;;;;;;23.45;4.28;;;4.90;99.90;;;;;;5054054;28;20057;-79
2023/01/31 04:19:59;;;;;;;22.80;5.28;;;5.00;99.90;;;;;;5057004;28;20456;-79
2023/01/31 04:22:45;;;;;;;31.73;5.68;;;5.00;99.90;;;;;;5052262;28;20493;-79
2023/01/31 04:25:31;;;;;;;33.88;6.15;;;5.00;99.90;;;;;;5023663;28;20048;-78
2023/01/31 04:28:17;;;;;;;25.25;4.55;;;5.00;99.90;;;;;;5052027;28;20144;-81
2023/01/31 04:31:03;;;;;;;28.75;5.15;;;5.10;99.90;;;;;;5051333;28;20677;-81
2023/01/31 04:33:49;;;;;;;33.78;5.38;;;5.10;99.90;;;;;;5034343;28;20083;-79
2023/01/31 04:36:36;;;;;;;40.30;6.82;;;5.10;99.90;;;;;;5056019;28;20122;-81
2023/01/31 04:39:22;;;;;;;42.05;6.35;;;5.20;99.90;;;;;;5040209;28;20048;-79
2023/01/31 04:42:08;;;;;;;34.65;7.82;;;5.30;99.90;;;;;;5058713;28;20037;-83
2023/01/31 04:44:54;;;;;;;26.25;5.22;;;5.30;99.90;;;;;;5048328;28;20481;-85
2023/01/31 04:47:41;;;;;;;32.17;7.32;;;5.30;99.90;;;;;;5057105;28;20127;-83
2023/01/31 04:50:27;;;;;;;26.70;5.00;;;5.40;99.90;;;;;;5038146;28;20147;-81
2023/01/31 04:53:14;;;;;;;31.50;5.90;;;5.40;99.90;;;;;;5054417;28;20140;-82
2023/01/31 04:56:00;;;;;;;26.70;5.95;;;5.40;99.90;;;;;;5051521;28;20055;-81
2023/01/31 04:58:47;;;;;;;38.60;7.55;;;5.40;99.90;;;;;;5051334;28;20095;-83
2023/01/31 05:01:33;;;;;;;29.48;6.13;;;5.40;99.90;;;;;;5050437;28;20421;-83
2023/01/31 05:04:21;;;;;;;31.00;7.65;;;5.40;99.90;;;;;;5038871;28;20048;-80
2023/01/31 05:07:07;;;;;;;38.90;7.28;;;5.40;99.90;;;;;;5071023;28;20055;-80
2023/01/31 05:09:53;;;;;;;45.45;8.13;;;5.50;99.90;;;;;;5051969;28;20076;-80
2023/01/31 05:12:39;;;;;;;30.83;7.22;;;5.50;99.90;;;;;;5071103;28;20053;-83
2023/01/31 05:15:25;;;;;;;26.63;5.25;;;5.50;99.90;;;;;;5070205;28;20052;-80
2023/01/31 05:18:11;;;;;;;42.33;6.50;;;5.60;99.90;;;;;;5070330;28;20051;-84
2023/01/31 05:20:57;;;;;;;25.73;5.50;;;5.60;99.90;;;;;;5072402;28;20049;-84
2023/01/31 05:23:43;;;;;;;31.65;5.72;;;5.60;99.90;;;;;;5056192;28;20040;-81
2023/01/31 05:26:29;;;;;;;29.48;5.72;;;5.60;99.90;;;;;;5077074;28;20499;-80
2023/01/31 05:29:16;;;;;;;42.42;5.05;;;5.60;99.90;;;;;;5072307;28;20057;-83
2023/01/31 05:32:03;;;;;;;25.65;5.38;;;5.70;99.90;;;;;;5052687;28;20064;-84
2023/01/31 05:34:48;;;;;;;32.15;5.82;;;5.60;99.90;;;;;;5070647;28;20045;-82
2023/01/31 05:37:36;;;;;;;19.95;4.75;;;5.60;99.90;;;;;;5070863;28;20044;-84
2023/01/31 05:40:22;;;;;;;44.55;6.35;;;5.60;99.90;;;;;;5075157;28;20044;-83
2023/01/31 05:43:08;;;;;;;26.80;5.47;;;5.60;99.90;;;;;;5078207;28;20045;-79
2023/01/31 05:45:54;;;;;;;28.73;5.40;;;5.60;99.90;;;;;;5079238;28;20496;-83
2023/01/31 05:48:40;;;;;;;31.58;6.50;;;5.70;99.90;;;;;;5073533;28;20044;-82
2023/01/31 05:51:26;;;;;;;23.58;5.25;;;5.60;99.90;;;;;;5074186;28;20060;-83
2023/01/31 05:54:12;;;;;;;30.88;4.82;;;5.70;99.90;;;;;;5073617;28;20047;-83
2023/01/31 05:56:58;;;;;;;23.70;4.97;;;5.70;99.90;;;;;;5073601;28;20051;-80
2023/01/31 05:59:44;;;;;;;32.65;7.38;;;5.70;99.90;;;;;;5043563;28;20056;-85
2023/01/31 06:02:32;;;;;;;27.55;7.13;;;5.70;99.90;;;;;;5058131;28;20088;-81
2023/01/31 06:05:18;;;;;;;27.10;5.35;;;5.70;99.90;;;;;;5074338;28;20080;-79
2023/01/31 06:08:04;;;;;;;26.10;5.55;;;5.70;99.90;;;;;;5073291;28;20408;-82
2023/01/31 06:10:50;;;;;;;30.55;6.05;;;5.70;99.90;;;;;;5055205;28;20045;-78
2023/01/31 06:13:37;;;;;;;30.10;5.38;;;5.80;99.90;;;;;;5073364;28;20523;-81
2023/01/31 06:16:23;;;;;;;31.58;5.32;;;5.80;99.90;;;;;;5072463;28;20511;-84
2023/01/31 06:19:09;;;;;;;39.08;6.53;;;5.80;99.90;;;;;;5075553;28;20057;-84
2023/01/31 06:21:55;;;;;;;27.30;4.45;;;5.80;99.90;;;;;;5073398;28;20418;-82
2023/01/31 06:24:41;;;;;;;31.85;5.60;;;5.80;99.90;;;;;;5077323;28;20052;-84
2023/01/31 06:27:31;;;;;;;28.05;5.50;;;5.90;99.90;;;;;;5073058;28;20473;-83
2023/01/31 06:30:17;;;;;;;31.70;6.35;;;5.90;99.90;;;;;;5054358;28;20063;-81
2023/01/31 06:33:03;;;;;;;25.25;4.88;;;5.90;99.90;;;;;;5073229;28;20044;-84
2023/01/31 06:35:49;;;;;;;24.63;4.07;;;5.90;99.90;;;;;;5074951;28;20040;-87
2023/01/31 06:38:35;;;;;;;27.55;5.10;;;5.90;99.90;;;;;;5073039;28;20492;-81
2023/01/31 06:41:21;;;;;;;34.00;6.78;;;5.80;99.90;;;;;;5055165;28;20056;-80
2023/01/31 06:44:07;;;;;;;35.15;4.97;;;5.80;99.90;;;;;;5059320;28;20063;-83
2023/01/31 06:46:54;;;;;;;31.55;6.18;;;5.80;99.90;;;;;;5077847;28;20045;-81
2023/01/31 06:49:40;;;;;;;31.98;5.63;;;5.80;99.90;;;;;;5057506;28;20133;-85
2023/01/31 06:52:26;;;;;;;20.90;4.22;;;5.70;99.90;;;;;;5054823;28;20094;-84
2023/01/31 06:55:12;;;;;;;19.50;3.70;;;5.70;99.90;;;;;;5057433;28;20132;-82
2023/01/31 06:57:58;;;;;;;21.38;4.90;;;5.70;99.90;;;;;;5071669;28;20044;-83
2023/01/31 07:00:45;;;;;;;29.98;4.50;;;5.70;99.90;;;;;;5057401;28;20051;-80
2023/01/31 07:03:31;;;;;;;22.88;4.20;;;5.80;99.90;;;;;;5071629;28;20396;-78
2023/01/31 07:06:19;;;;;;;25.15;5.28;;;5.80;99.90;;;;;;5074531;28;20060;-77
2023/01/31 07:09:06;;;;;;;23.02;3.95;;;5.80;99.90;;;;;;5079647;28;20052;-80
2023/01/31 07:11:52;;;;;;;20.75;3.67;;;5.80;99.90;;;;;;5075380;28;20507;-80
2023/01/31 07:14:38;;;;;;;22.45;3.45;;;5.80;99.90;;;;;;5070852;28;20044;-80
2023/01/31 07:17:25;;;;;;;20.80;4.70;;;5.80;99.90;;;;;;5071934;28;20109;-79
2023/01/31 07:20:12;;;;;;;17.95;3.00;;;5.80;99.90;;;;;;5073983;28;20052;-80
2023/01/31 07:22:59;;;;;;;16.65;3.25;;;5.80;99.90;;;;;;5072354;28;20131;-80
2023/01/31 07:25:45;;;;;;;20.23;3.88;;;5.80;99.90;;;;;;5040838;28;20056;-84
2023/01/31 07:28:31;;;;;;;29.25;5.40;;;5.90;99.90;;;;;;5053223;28;20514;-83
2023/01/31 07:31:17;;;;;;;21.92;3.85;;;5.90;99.90;;;;;;5054205;28;20060;-78
2023/01/31 07:34:03;;;;;;;25.77;4.05;;;5.90;99.90;;;;;;5072553;28;20560;-81
2023/01/31 07:36:50;;;;;;;21.50;5.00;;;5.90;99.90;;;;;;5073083;28;20079;-80
2023/01/31 07:39:36;;;;;;;17.45;3.25;;;5.90;99.90;;;;;;5072986;28;20049;-79
2023/01/31 07:42:22;;;;;;;27.25;3.75;;;5.90;99.90;;;;;;5041472;28;20053;-79
2023/01/31 07:45:13;;;;;;;21.58;4.50;;;5.90;99.90;;;;;;5071361;28;20049;-79
2023/01/31 07:48:00;;;;;;;26.35;4.38;;;5.90;99.90;;;;;;5052823;28;20060;-79
2023/01/31 07:50:46;;;;;;;25.08;5.15;;;5.90;99.90;;;;;;5053133;28;20048;-79
2023/01/31 07:53:35;;;;;;;20.45;5.32;;;5.90;99.90;;;;;;5072237;28;20459;-82
2023/01/31 07:56:21;;;;;;;15.85;3.80;;;5.90;99.90;;;;;;5071242;28;20049;-85
2023/01/31 07:59:07;;;;;;;21.40;3.70;;;6.00;99.90;;;;;;5053250;28;20087;-80
2023/01/31 08:04:59;;;;;;;20.45;4.85;;;6.00;99.90;;;;;;5077261;28;20056;-81
2023/01/31 08:08:09;;;;;;;23.00;4.78;;;6.00;99.90;;;;;;5074259;28;20053;-85
2023/01/31 08:10:51;;;;;;;35.08;5.85;;;6.00;99.90;;;;;;5070832;28;20412;-83
2023/01/31 08:13:38;;;;;;;25.20;4.53;;;6.00;99.90;;;;;;5068974;28;20083;-80
2023/01/31 08:16:24;;;;;;;29.73;6.40;;;6.00;99.90;;;;;;5069924;28;20496;-81
2023/01/31 08:19:10;;;;;;;24.08;4.88;;;6.10;99.90;;;;;;5073884;28;20048;-79
2023/01/31 08:21:56;;;;;;;26.63;4.15;;;6.10;99.90;;;;;;5071145;28;20109;-81
2023/01/31 08:24:42;;;;;;;29.00;6.45;;;6.10;99.90;;;;;;5070535;28;20113;-78
2023/01/31 08:27:29;;;;;;;26.77;4.60;;;6.10;99.90;;;;;;5053270;28;20053;-81
2023/01/31 08:30:16;;;;;;;31.40;4.90;;;6.10;99.90;;;;;;5054722;28;20504;-79
2023/01/31 08:33:03;;;;;;;30.33;8.00;;;6.10;99.90;;;;;;5069585;28;20522;-80
2023/01/31 08:35:49;;;;;;;29.27;5.32;;;6.20;99.90;;;;;;5070417;28;20045;-79
2023/01/31 08:38:35;;;;;;;32.90;5.35;;;6.20;99.90;;;;;;5058698;28;20167;-82
2023/01/31 08:41:23;;;;;;;18.08;3.58;;;6.10;99.90;;;;;;5070317;28;20059;-77
2023/01/31 08:44:11;;;;;;;28.27;5.50;;;6.10;99.90;;;;;;5057520;28;20143;-78
2023/01/31 08:47:00;;;;;;;30.38;5.35;;;6.10;99.90;;;;;;5069513;28;20053;-80
2023/01/31 08:49:46;;;;;;;31.90;5.25;;;6.20;99.90;;;;;;5069706;28;20500;-77
2023/01/31 08:52:34;;;;;;;25.33;5.68;;;6.20;99.90;;;;;;5069064;28;20146;-79
2023/01/31 08:55:21;;;;;;;24.85;5.22;;;6.20;99.90;;;;;;5069828;28;20501;-82
2023/01/31 08:58:07;;;;;;;24.92;5.85;;;6.20;99.90;;;;;;5070975;28;20052;-80
2023/01/31 09:00:53;;;;;;;31.50;5.93;;;6.20;99.90;;;;;;5057666;28;20048;-82
2023/01/31 09:03:41;;;;;;;26.95;4.70;;;6.20;99.90;;;;;;5070726;28;20045;-78
2023/01/31 09:06:27;;;;;;;26.73;4.60;;;6.20;99.90;;;;;;5071331;28;20049;-80
2023/01/31 09:09:13;;;;;;;36.80;5.68;;;6.30;99.90;;;;;;5054013;28;20052;-78
2023/01/31 09:11:59;;;;;;;28.33;4.95;;;6.30;99.90;;;;;;5070155;28;20051;-80
2023/01/31 09:14:45;;;;;;;25.85;5.38;;;6.30;99.90;;;;;;5075415;28;20056;-81
2023/01/31 09:17:32;;;;;;;33.25;5.60;;;6.40;99.90;;;;;;5076580;28;20083;-81
2023/01/31 09:20:18;;;;;;;32.67;5.13;;;6.30;99.90;;;;;;5081923;28;20045;-82
2023/01/31 09:23:04;;;;;;;26.67;4.82;;;6.30;99.90;;;;;;5074888;28;20052;-81
2023/01/31 09:25:54;;;;;;;31.55;4.47;;;6.30;99.90;;;;;;5075145;28;20047;-82
2023/01/31 09:28:42;;;;;;;31.77;6.03;;;6.30;99.90;;;;;;5060673;28;20044;-81
2023/01/31 09:31:29;;;;;;;32.03;5.03;;;6.30;99.90;;;;;;5074159;28;20064;-80
2023/01/31 09:34:15;;;;;;;34.03;7.03;;;6.30;99.90;;;;;;5073097;28;20135;-80
2023/01/31 09:37:01;;;;;;;35.97;6.00;;;6.30;99.90;;;;;;5060106;28;20067;-81
2023/01/31 09:39:47;;;;;;;38.10;5.65;;;6.30;99.90;;;;;;5073960;28;20049;-81
2023/01/31 09:42:36;;;;;;;35.03;5.10;;;6.30;99.90;;;;;;5056357;28;20152;-81
2023/01/31 09:45:29;;;;;;;27.33;5.25;;;6.30;99.90;;;;;;5072549;28;20505;-76
2023/01/31 09:48:23;;;;;;;25.77;4.88;;;6.30;99.90;;;;;;5042791;28;20048;-78
2023/01/31 09:51:12;;;;;;;27.33;4.22;;;6.30;99.90;;;;;;5054714;28;20048;-83
2023/01/31 09:54:01;;;;;;;28.60;4.18;;;6.30;99.90;;;;;;5071887;28;20045;-84
2023/01/31 09:56:59;;;;;;;21.80;5.13;;;6.30;99.90;;;;;;5073312;28;20109;-79
2023/01/31 10:00:32;;;;;;;23.83;4.45;;;6.40;99.90;;;;;;5074972;28;20084;-80
2023/01/31 10:03:23;;;;;;;27.92;5.68;;;6.40;99.90;;;;;;4976779;28;20058;-85
2023/01/31 10:06:25;;;;;;;27.10;5.07;;;6.40;99.90;;;;;;4973171;28;20047;-84
2023/01/31 10:09:19;;;;;;;17.38;4.32;;;6.40;99.90;;;;;;5055517;28;20106;-82
2023/01/31 10:12:23;;;;;;;29.00;4.70;;;6.40;99.90;;;;;;5072802;28;20045;-78
2023/01/31 10:15:20;;;;;;;28.67;6.38;;;6.40;99.90;;;;;;5073455;28;20044;-81
2023/01/31 10:18:27;;;;;;;25.63;4.85;;;6.50;99.90;;;;;;5073878;28;20045;-80
2023/01/31 10:21:18;;;;;;;26.65;6.00;;;6.50;99.90;;;;;;5079187;28;20135;-78
2023/01/31 10:24:10;;;;;;;27.45;6.15;;;6.50;99.90;;;;;;5055026;28;20045;-81
2023/01/31 10:27:04;;;;;;;23.60;4.45;;;6.50;99.90;;;;;;5055259;28;20095;-80
2023/01/31 10:29:54;;;;;;;25.13;5.07;;;6.60;99.90;;;;;;5070794;28;20052;-83
2023/01/31 10:32:44;;;;;;;32.13;7.15;;;6.50;99.90;;;;;;5073684;28;20041;-83
2023/01/31 10:35:41;;;;;;;34.75;5.28;;;6.60;99.90;;;;;;5055811;28;20071;-79
2023/01/31 10:38:40;;;;;;;25.45;5.50;;;6.50;99.90;;;;;;5072350;28;20072;-82
2023/01/31 10:41:37;;;;;;;29.00;4.72;;;6.60;99.90;;;;;;5074960;28;20044;-84
2023/01/31 10:44:31;;;;;;;35.17;7.38;;;6.60;99.90;;;;;;5073923;28;20052;-81
2023/01/31 10:47:18;;;;;;;24.25;4.57;;;6.60;99.90;;;;;;5080412;28;20075;-80
2023/01/31 10:50:38;;;;;;;24.75;4.60;;;6.70;99.90;;;;;;5054434;28;20052;-83
2023/01/31 10:53:30;;;;;;;25.88;5.38;;;6.80;99.90;;;;;;5072665;28;20500;-82
2023/01/31 10:56:36;;;;;;;28.08;5.35;;;6.70;99.90;;;;;;5058179;28;20062;-84
2023/01/31 10:59:37;;;;;;;27.03;4.80;;;6.80;99.90;;;;;;5059014;28;20048;-83
2023/01/31 11:02:27;;;;;;;25.90;4.22;;;6.80;99.90;;;;;;5073224;28;20040;-83
2023/01/31 11:05:20;;;;;;;35.83;5.80;;;6.80;99.90;;;;;;5072608;28;20056;-84
2023/01/31 11:08:22;;;;;;;41.33;5.20;;;6.90;99.90;;;;;;5072319;28;20052;-85
2023/01/31 11:11:12;;;;;;;33.35;7.85;;;6.90;99.90;;;;;;5054805;28;20062;-79
2023/01/31 11:13:59;;;;;;;35.03;5.43;;;6.90;99.90;;;;;;5043504;28;20056;-83
2023/01/31 11:16:47;;;;;;;34.63;4.70;;;7.00;99.90;;;;;;5072944;28;20044;-83
2023/01/31 11:19:43;;;;;;;19.83;4.43;;;7.00;99.90;;;;;;5054272;28;20060;-83
2023/01/31 11:22:31;;;;;;;;;;;7.00;99.90;;;;;;5073263;28;20080;-82
2023/01/31 11:25:21;;;;;;;29.67;5.22;;;7.00;99.90;;;;;;5056871;28;19924;-83
2023/01/31 11:28:21;;;;;;;24.98;5.40;;;7.00;99.90;;;;;;5070867;28;20037;-82
2023/01/31 11:31:35;;;;;;;23.63;5.07;;;7.00;99.90;;;;;;5071436;28;20056;-82
2023/01/31 11:34:23;;;;;;;31.05;4.72;;;7.10;99.90;;;;;;5058575;28;20059;-82
2023/01/31 11:37:16;;;;;;;25.10;4.70;;;7.20;99.90;;;;;;5076028;28;20076;-81
2023/01/31 11:40:14;;;;;;;27.58;4.50;;;7.30;99.90;;;;;;5074564;28;20091;-82
2023/01/31 11:43:03;;;;;;;26.98;5.60;;;7.30;99.90;;;;;;5073015;28;20037;-84
2023/01/31 11:46:02;;;;;;;24.45;4.95;;;7.30;99.90;;;;;;5072889;28;20051;-84
2023/01/31 11:48:48;;;;;;;23.35;5.47;;;7.30;99.90;;;;;;5071090;28;20044;-84
2023/01/31 11:51:35;;;;;;;25.13;5.55;;;7.40;99.90;;;;;;5071897;28;20052;-79
2023/01/31 11:54:25;;;;;;;27.80;4.20;;;7.50;99.90;;;;;;5055927;28;20400;-81
2023/01/31 11:57:20;;;;;;;25.40;4.97;;;7.60;99.90;;;;;;5056750;28;20443;-81
2023/01/31 12:00:29;;;;;;;28.83;5.75;;;7.70;99.90;;;;;;5053463;28;20055;-84
2023/01/31 12:03:16;;;;;;;24.35;4.63;;;7.80;99.90;;;;;;5070128;28;20088;-84
2023/01/31 12:06:06;;;;;;;26.98;4.28;;;7.80;99.90;;;;;;5070389;28;20055;-83
2023/01/31 12:08:57;;;;;;;25.80;4.72;;;8.00;99.90;;;;;;5069622;28;20492;-83
2023/01/31 12:11:57;;;;;;;27.33;5.20;;;7.90;99.90;;;;;;5071928;28;20135;-83
2023/01/31 12:14:47;;;;;;;28.25;5.07;;;8.00;99.90;;;;;;5073629;28;20047;-84
2023/01/31 12:17:45;;;;;;;31.27;6.68;;;7.90;99.90;;;;;;5074854;28;20037;-82
2023/01/31 12:20:43;;;;;;;23.40;5.15;;;8.00;99.90;;;;;;5071699;28;20044;-82
2023/01/31 12:23:42;;;;;;;21.63;4.25;;;8.00;99.90;;;;;;5071957;28;20044;-85
2023/01/31 12:26:44;;;;;;;31.25;4.63;;;7.90;99.90;;;;;;5070784;28;20457;-86
2023/01/31 12:30:14;;;;;;;22.40;4.40;;;7.90;99.90;;;;;;5072024;28;20084;-80
2023/01/31 12:33:23;;;;;;;20.05;4.85;;;8.00;99.90;;;;;;5071065;28;20059;-77
2023/01/31 12:36:33;;;;;;;30.30;5.07;;;8.10;99.90;;;;;;5071912;28;20045;-82
2023/01/31 12:39:40;;;;;;;21.27;4.57;;;8.70;99.90;;;;;;5074929;28;20067;-78
2023/01/31 12:42:50;;;;;;;23.77;4.85;;;8.70;99.90;;;;;;5071652;28;20123;-82
2023/01/31 12:45:45;;;;;;;24.05;5.18;;;9.00;99.90;;;;;;5071179;28;20060;-83
2023/01/31 12:48:37;;;;;;;26.10;5.53;;;9.30;99.90;;;;;;5070938;28;20047;-79
2023/01/31 12:51:41;;;;;;;20.75;5.53;;;9.10;99.90;;;;;;5052402;28;20056;-80
2023/01/31 12:54:51;;;;;;;28.83;4.22;;;9.40;99.90;;;;;;5052498;28;20060;-79
2023/01/31 12:57:59;;;;;;;23.95;4.55;;;10.20;99.90;;;;;;5071941;28;20049;-84
2023/01/31 13:00:58;;;;;;;17.45;4.20;;;9.80;99.90;;;;;;5071570;28;20092;-83
2023/01/31 13:03:53;;;;;;;17.52;4.18;;;9.30;99.90;;;;;;5074306;28;20068;-79
2023/01/31 13:06:44;;;;;;;22.75;4.72;;;8.90;99.90;;;;;;5056578;28;20101;-83
2023/01/31 13:09:33;;;;;;;25.92;5.13;;;8.70;99.90;;;;;;5071095;28;20044;-84
2023/01/31 13:12:24;;;;;;;20.45;6.07;;;8.80;99.90;;;;;;5056575;28;20049;-85
2023/01/31 13:15:38;;;;;;;22.83;4.15;;;8.70;99.90;;;;;;5052891;28;20549;-81
2023/01/31 13:18:25;;;;;;;18.33;3.85;;;8.60;99.90;;;;;;5071594;28;20044;-86
2023/01/31 13:21:18;;;;;;;20.13;4.55;;;8.50;99.90;;;;;;5055929;28;20510;-81
2023/01/31 13:24:09;;;;;;;26.08;5.03;;;8.60;99.90;;;;;;5074190;28;20053;-79
2023/01/31 13:27:17;;;;;;;25.88;5.05;;;8.70;99.90;;;;;;5071327;28;20045;-81
2023/01/31 13:30:25;;;;;;;25.33;6.07;;;8.60;99.90;;;;;;5070757;28;20056;-85
2023/01/31 13:33:32;;;;;;;22.60;4.00;;;9.40;99.90;;;;;;5070513;28;20126;-84
2023/01/31 13:36:34;;;;;;;26.30;4.82;;;10.00;99.90;;;;;;5051092;28;20088;-86
2023/01/31 13:39:25;;;;;;;23.48;5.03;;;10.40;99.90;;;;;;5072388;28;20565;-81
2023/01/31 13:42:16;;;;;;;26.55;5.10;;;10.40;99.90;;;;;;5070491;28;20048;-79
2023/01/31 13:45:06;;;;;;;25.65;5.78;;;10.20;99.90;;;;;;5070404;28;20037;-77
2023/01/31 13:48:02;;;;;;;23.92;5.85;;;10.30;99.90;;;;;;5073467;28;20065;-79
2023/01/31 13:50:54;;;;;;;35.10;6.63;;;10.20;99.90;;;;;;5075397;28;20049;-79
2023/01/31 13:53:56;;;;;;;18.73;4.38;;;9.80;99.90;;;;;;5071058;28;20159;-84
2023/01/31 13:56:57;;;;;;;30.33;5.45;;;9.30;99.90;;;;;;5055864;28;20048;-85
2023/01/31 13:59:53;;;;;;;22.33;4.57;;;9.00;99.90;;;;;;5071368;28;20098;-80
2023/01/31 14:03:02;;;;;;;27.30;4.20;;;9.10;99.90;;;;;;5056652;28;20131;-81
2023/01/31 14:05:58;;;;;;;26.50;5.43;;;9.20;99.90;;;;;;5060809;28;20052;-83
2023/01/31 14:08:48;;;;;;;21.90;4.20;;;8.80;99.90;;;;;;5072441;28;20052;-85
2023/01/31 14:11:42;;;;;;;26.65;4.78;;;8.60;99.90;;;;;;5072286;28;20048;-80
2023/01/31 14:14:36;;;;;;;20.23;5.57;;;8.40;99.90;;;;;;5066841;28;20443;-84
2023/01/31 14:17:28;;;;;;;29.40;4.70;;;8.30;99.90;;;;;;5058184;28;20053;-81
2023/01/31 14:20:29;;;;;;;19.50;4.78;;;8.20;99.90;;;;;;5073287;28;20464;-84
2023/01/31 14:23:42;;;;;;;25.98;4.93;;;8.20;99.90;;;;;;5074212;28;20048;-82
2023/01/31 14:26:43;;;;;;;29.13;5.47;;;8.20;99.90;;;;;;5074561;28;20047;-86
2023/01/31 14:29:32;;;;;;;23.25;4.88;;;8.30;99.90;;;;;;5057385;28;20052;-83
2023/01/31 14:32:41;;;;;;;30.00;5.35;;;8.30;99.90;;;;;;5071994;28;20484;-86
2023/01/31 14:35:30;;;;;;;28.10;4.72;;;8.20;99.90;;;;;;5079378;28;20048;-83
2023/01/31 14:38:25;;;;;;;20.83;4.25;;;8.10;99.90;;;;;;5077132;28;20059;-85
2023/01/31 14:41:49;;;;;;;27.47;5.80;;;8.00;99.90;;;;;;5081520;28;20052;-80
2023/01/31 14:44:53;;;;;;;24.05;5.88;;;7.90;99.90;;;;;;5080058;28;20747;-83
2023/01/31 14:48:08;;;;;;;22.33;4.22;;;7.90;99.90;;;;;;5087243;28;20497;-84
2023/01/31 14:51:08;;;;;;;32.42;6.28;;;8.10;99.90;;;;;;5050573;28;20119;-82
2023/01/31 14:54:03;;;;;;;17.75;3.58;;;8.10;99.90;;;;;;5055387;28;20186;-81
2023/01/31 14:57:13;;;;;;;19.90;4.57;;;8.60;99.90;;;;;;5073850;28;20084;-81
2023/01/31 15:00:05;;;;;;;18.60;4.82;;;8.70;99.90;;;;;;5072672;28;20084;-80
2023/01/31 15:03:00;;;;;;;26.85;4.70;;;8.50;99.90;;;;;;5071563;28;20416;-79
2023/01/31 15:05:55;;;;;;;22.25;5.20;;;8.40;99.90;;;;;;5072117;28;20390;-80